Latest Weather Observations for Cape Byron

IDN60801

Issued at 1:53 am EDT Friday 21 January 2022 (issued every 10 minutes, with the page automatically refreshed every 10 minutes)

About weather observations | Map of weather stations | Latest weather observations for NSW | Other Formats
Station Details ID: 058216 Name: CAPE BYRON AWS Lat: -28.64 Lon: 153.64 Height: 95.0 m
Data from the previous 72 hours. | See also: Recent months at Cape Byron
Date/Time
EDT
Temp
°C
App
Temp
°C
Dew
Point
°C
Rel
Hum
%
Delta-T
°C
Wind Press
QNH
hPa
Press
MSL
hPa
Rain since
9am
mm
Dir  Spd
km/h
Gust
km/h
Spd
kts
Gust
kts
21/01:30am 23.2 15.2 18.1 73 3.2 SE 57 72 31 39 1020.6 1020.1 34.6
21/01:24am 23.1 16.4 18.0 73 3.2 SE 50 72 27 39 1020.4 1019.9 34.6
21/01:00am 23.2 15.1 17.7 71 3.4 SE 57 69 31 37 1020.6 1020.1 34.6
21/12:36am 23.3 16.6 18.0 72 3.3 SE 50 69 27 37 1021.2 1020.7 34.6
21/12:30am 23.2 15.2 17.7 71 3.4 SE 56 69 30 37 1021.0 1020.5 34.6
21/12:17am 23.4 15.9 17.8 71 3.5 SE 54 72 29 39 1021.2 1020.7 34.6
21/12:00am 23.2 16.2 18.1 73 3.2 SE 52 69 28 37 1021.1 1020.6 34.6
 
Date/Time
EDT
Temp
°C
App
Temp
°C
Dew
Point
°C
Rel
Hum
%
Delta-T
°C
Wind Press
QNH
hPa
Press
MSL
hPa
Rain since
9am
mm
Dir  Spd
km/h
Gust
km/h
Spd
kts
Gust
kts
20/11:49pm 23.4 16.5 17.4 69 3.7 SE 50 69 27 37 1021.4 1020.9 34.6
20/11:30pm 23.5 15.6 18.2 72 3.3 SE 57 70 31 38 1021.0 1020.5 34.6
20/11:00pm 23.6 15.0 18.5 73 3.2 SE 61 72 33 39 1021.1 1020.6 34.6
20/10:41pm 23.5 15.8 18.4 73 3.2 SE 56 74 30 40 1021.0 1020.5 34.6
20/10:30pm 23.4 14.6 18.9 76 2.9 SE 63 76 34 41 1020.7 1020.2 34.6
20/10:09pm 23.2 16.1 18.7 76 2.9 SE 54 72 29 39 1020.8 1020.3 34.6
20/10:00pm 23.2 15.9 19.2 78 2.5 SE 56 72 30 39 1020.6 1020.1 34.6
20/09:30pm 23.2 17.8 19.2 78 2.6 SSE 46 65 25 35 1020.8 1020.3 34.2
20/09:00pm 23.7 17.5 19.0 75 3.0 SSE 50 70 27 38 1020.3 1019.8 34.2
20/08:57pm 23.7 17.3 18.6 73 3.2 SSE 50 70 27 38 1020.4 1019.9 34.2
20/08:30pm 23.6 16.0 18.9 75 3.0 SE 57 76 31 41 1020.2 1019.7 34.2
20/08:09pm 23.8 17.3 18.4 72 3.4 SE 50 69 27 37 1020.0 1019.5 34.2
20/08:00pm 23.6 16.5 18.7 74 3.1 SE 54 69 29 37 1019.6 1019.1 34.2
20/07:34pm 23.7 16.4 19.2 76 2.9 SE 56 76 30 41 1019.3 1018.8 34.2
20/07:30pm 23.7 15.6 19.6 78 2.6 SE 61 76 33 41 1019.1 1018.6 34.2
20/07:00pm 23.6 16.4 19.5 78 2.6 SE 56 80 30 43 1018.9 1018.4 34.2
20/06:45pm 23.2 14.5 19.8 81 2.2 SE 65 82 35 44 1018.9 1018.4 34.2
20/06:30pm 22.6 15.5 20.9 90 1.1 ESE 59 85 32 46 1018.6 1018.1 34.0
20/06:10pm 22.9 15.6 20.4 86 1.6 SE 59 78 32 42 1018.3 1017.8 34.0
20/06:00pm 22.5 14.6 19.9 85 1.7 SE 61 78 33 42 1018.3 1017.8 34.0
20/05:31pm 22.6 14.1 20.3 87 1.5 ESE 65 83 35 45 1017.7 1017.2 33.8
20/05:30pm 22.7 14.4 20.6 88 1.4 ESE 65 78 35 42 1017.8 1017.3 33.8
20/05:02pm 21.3 11.6 20.5 95 0.5 ESE 72 91 39 49 1017.4 1016.9 33.6
20/05:00pm 21.2 11.8 20.4 95 0.5 ESE 70 91 38 49 1017.3 1016.8 33.4
20/04:54pm 22.0 14.8 20.6 92 0.9 ESE 59 85 32 46 1017.2 1016.6 31.8
20/04:30pm 22.1 16.9 21.1 94 0.7 E 50 69 27 37 1017.6 1017.1 30.0
20/04:14pm 22.5 18.9 21.0 91 1.0 ESE 41 59 22 32 1018.0 1017.5 29.0
20/04:00pm 22.3 18.1 20.6 90 1.1 ESE 43 54 23 29 1018.1 1017.6 28.6
20/03:30pm 22.3 17.5 21.3 94 0.7 ESE 48 59 26 32 1017.8 1017.3 28.2
20/03:11pm 22.3 18.4 21.5 95 0.5 ESE 44 65 24 35 1017.7 1017.2 27.2
20/03:00pm 22.3 17.9 21.3 94 0.7 E 46 61 25 33 1017.7 1017.2 27.0
20/02:57pm 22.6 18.8 21.4 93 0.8 E 43 61 23 33 1017.7 1017.2 27.0
20/02:30pm 22.7 19.6 21.9 95 0.5 E 41 50 22 27 1017.7 1017.2 27.0
20/02:00pm 22.6 19.7 21.6 94 0.7 E 39 50 21 27 1017.8 1017.3 26.4
20/01:44pm 22.5 17.8 21.5 94 0.7 ESE 48 59 26 32 1017.8 1017.3 26.4
20/01:31pm 22.4 20.3 21.6 95 0.5 SE 35 54 19 29 1017.8 1017.3 26.2
20/01:30pm 22.4 20.3 21.6 95 0.5 SE 35 50 19 27 1017.8 1017.3 26.2
20/01:06pm 22.3 21.2 21.8 97 0.3 ESE 30 57 16 31 1017.6 1017.1 25.8
20/01:05pm 22.4 21.9 22.1 98 0.2 ESE 28 52 15 28 1017.7 1017.2 25.8
20/01:00pm 22.0 20.2 21.5 97 0.3 ESE 33 67 18 36 1017.5 1017.0 25.8
20/12:51pm 22.1 20.5 21.6 97 0.3 E 32 67 17 36 1017.6 1017.1 22.8
20/12:39pm 22.5 22.8 22.2 98 0.2 SSE 24 41 13 22 1017.6 1017.1 22.2
20/12:30pm 21.7 23.2 21.2 97 0.3 SSE 15 22 8 12 1017.9 1017.4 21.4
20/12:00pm 21.7 23.5 21.2 97 0.3 WSW 13 19 7 10 1018.1 1017.6 11.4
20/11:30am 21.6 23.8 21.1 97 0.3 ESE 11 17 6 9 1018.0 1017.5 6.8
20/11:09am 21.5 19.0 20.8 96 0.5 ESE 35 59 19 32 1017.4 1016.9 5.0
20/11:06am 21.8 20.4 21.1 96 0.5 SE 30 59 16 32 1017.1 1016.5 4.8
20/11:04am 22.9 23.4 22.6 98 0.2 SSE 24 59 13 32 1017.4 1016.9 4.8
20/11:00am 22.8 24.0 22.5 98 0.2 S 20 30 11 16 1017.6 1017.1 4.8
20/10:30am 21.3 22.3 21.0 98 0.2 SW 17 20 9 11 1017.4 1016.9 4.4
20/10:00am 20.5 19.7 20.0 97 0.3 SSW 24 35 13 19 1017.3 1016.8 4.2
20/09:30am 20.9 20.3 20.4 97 0.3 SSW 24 30 13 16 1017.2 1016.6 0.8
20/09:12am 21.7 19.6 21.0 96 0.5 S 33 44 18 24 1017.0 1016.4 0.0
20/09:00am 21.0 19.4 20.0 94 0.6 SSE 28 39 15 21 1016.8 1016.2 36.0
20/08:30am 21.2 20.3 20.7 97 0.3 SSE 26 39 14 21 1016.9 1016.3 35.6
20/08:00am 21.5 17.6 21.2 98 0.2 SE 43 63 23 34 1016.4 1015.8 29.4
20/07:54am 20.4 15.6 19.7 96 0.4 ESE 44 63 24 34 1016.0 1015.5 27.6
20/07:30am 21.6 17.1 21.1 97 0.3 ESE 46 57 25 31 1015.7 1015.2 22.2
20/07:21am 22.0 18.3 21.5 97 0.3 SE 43 59 23 32 1015.6 1015.1 18.2
20/07:03am 22.2 18.4 21.4 95 0.5 SSE 43 63 23 34 1015.7 1015.2 13.8
20/07:00am 22.7 19.1 22.0 96 0.5 SSE 44 59 24 32 1015.7 1015.2 13.0
20/06:30am 22.2 17.5 21.5 96 0.5 S 48 57 26 31 1015.3 1014.8 12.6
20/06:13am 21.8 18.9 20.8 94 0.7 SSE 37 57 20 31 1015.6 1015.1 10.6
20/06:09am 22.4 20.5 21.4 94 0.7 SSE 33 56 18 30 1015.4 1014.9 9.0
20/06:00am 22.4 20.5 21.4 94 0.7 S 33 44 18 24 1015.3 1014.8 7.8
20/05:30am 22.0 18.0 21.2 95 0.5 S 44 54 24 29 1014.9 1014.4 5.8
20/05:00am 21.7 17.1 20.9 95 0.5 S 46 57 25 31 1014.9 1014.4 5.4
20/04:33am 21.7 18.9 20.3 92 0.9 S 35 57 19 31 1014.7 1014.2 5.0
20/04:30am 22.8 21.3 21.8 94 0.7 SSE 32 48 17 26 1014.6 1014.1 4.2
20/04:00am 23.2 21.6 21.5 90 1.1 SE 32 43 17 23 1014.7 1014.2 3.0
20/03:30am 23.2 21.4 21.5 90 1.1 SSE 33 41 18 22 1015.0 1014.5 3.0
20/03:00am 22.8 21.0 21.1 90 1.1 S 32 41 17 22 1015.3 1014.8 3.0
20/02:30am 23.4 21.4 21.1 87 1.5 SE 33 48 18 26 1015.2 1014.7 3.0
20/02:00am 22.8 20.4 21.1 90 1.1 SE 35 46 19 25 1015.4 1014.9 2.8
20/01:49am 22.5 19.3 21.1 92 0.9 SE 39 46 21 25 1015.3 1014.8 2.8
20/01:30am 22.2 19.0 21.7 97 0.3 ESE 41 50 22 27 1015.6 1015.1 2.6
20/01:22am 22.1 20.2 21.4 96 0.5 SE 33 57 18 31 1015.4 1014.9 2.6
20/01:19am 22.3 21.2 21.8 97 0.3 SSE 30 57 16 31 1015.6 1015.1 2.6
20/01:00am 21.9 21.0 21.4 97 0.3 S 28 35 15 19 1016.0 1015.5 2.4
20/12:50am 21.7 20.2 21.0 96 0.5 SE 30 39 16 21 1016.1 1015.6 2.2
20/12:30am 21.8 18.6 21.1 96 0.5 SE 39 50 21 27 1015.9 1015.4 1.8
20/12:00am 22.1 21.7 21.6 97 0.3 SE 26 37 14 20 1016.1 1015.6 1.4
 
Date/Time
EDT
Temp
°C
App
Temp
°C
Dew
Point
°C
Rel
Hum
%
Delta-T
°C
Wind Press
QNH
hPa
Press
MSL
hPa
Rain since
9am
mm
Dir  Spd
km/h
Gust
km/h
Spd
kts
Gust
kts
19/11:30pm 22.2 20.6 21.5 96 0.5 S 32 41 17 22 1015.9 1015.4 0.6
19/11:00pm 22.3 19.8 21.6 96 0.5 SSE 37 48 20 26 1015.7 1015.2 0.6
19/10:56pm 21.8 19.0 21.0 95 0.5 SSE 37 48 20 26 1015.7 1015.2 0.6
19/10:30pm 22.7 23.2 21.9 95 0.5 SE 22 32 12 17 1015.3 1014.8 0.2
19/10:00pm 22.7 24.2 22.0 96 0.5 SW 17 20 9 11 1015.0 1014.5 0.0
19/09:30pm 22.5 23.8 21.7 95 0.5 SSW 17 22 9 12 1014.7 1014.2 0.0
19/09:00pm 22.5 22.7 21.3 93 0.8 SW 22 28 12 15 1014.5 1014.0 0.0
19/08:30pm 22.3 20.5 21.1 93 0.8 SW 32 44 17 24 1014.3 1013.8 0.0
19/08:01pm 22.4 20.1 21.2 93 0.8 SSW 35 54 19 29 1013.9 1013.4 0.0
19/08:00pm 22.4 19.7 21.2 93 0.8 SSW 37 54 20 29 1013.9 1013.4 0.0
19/07:58pm 22.4 20.1 21.2 93 0.8 SSW 35 54 19 29 1013.9 1013.4 0.0
19/07:30pm 22.4 19.7 21.2 93 0.8 SSW 37 50 20 27 1013.8 1013.3 0.0
19/07:00pm 22.5 20.8 21.7 95 0.5 SSW 33 46 18 25 1013.7 1013.2 0.0
19/06:30pm 22.7 19.9 21.7 94 0.7 SSW 39 50 21 27 1013.2 1012.7 0.0
19/06:00pm 23.0 20.6 21.8 93 0.8 SSW 37 46 20 25 1012.8 1012.3 0.0
19/05:39pm 24.2 23.8 21.7 86 1.7 S 26 46 14 25 1012.6 1012.1 0.0
19/05:30pm 26.3 28.2 21.3 74 3.3 SE 13 19 7 10 1012.7 1012.2 0.0
19/05:00pm 27.9 29.5 22.2 71 3.9 E 17 20 9 11 1012.5 1012.0 0.0
19/04:30pm 27.6 28.9 22.3 73 3.6 E 19 22 10 12 1012.6 1012.1 0.0
19/04:00pm 28.5 29.7 22.5 70 4.1 E 20 26 11 14 1012.9 1012.4 0.0
19/03:30pm 29.5 31.0 22.7 67 4.6 E 19 22 10 12 1012.7 1012.2 0.0
19/03:00pm 29.8 30.6 21.7 61 5.5 E 20 24 11 13 1012.8 1012.3 0.0
19/02:30pm 30.8 32.9 23.7 66 4.9 E 19 24 10 13 1012.9 1012.4 0.0
19/02:00pm 30.1 32.6 23.8 69 4.4 E 17 20 9 11 1013.0 1012.5 0.0
19/01:30pm 31.9 34.5 24.0 63 5.5 E 17 20 9 11 1012.8 1012.3 0.0
19/01:00pm 29.8 32.5 23.5 69 4.4 E 15 19 8 10 1013.1 1012.6 0.0
19/12:30pm 30.0 32.3 23.4 67 4.6 E 17 24 9 13 1013.2 1012.7 0.0
19/12:00pm 30.6 32.7 23.8 67 4.7 ENE 19 24 10 13 1013.4 1012.9 0.0
19/11:30am 30.1 32.2 22.5 63 5.2 ENE 15 19 8 10 1013.2 1012.7 0.0
19/11:00am 29.4 32.3 23.1 69 4.3 ENE 13 19 7 10 1013.3 1012.8 0.0
19/10:30am 29.2 32.1 23.2 70 4.1 ENE 13 15 7 8 1013.3 1012.8 0.0
19/10:00am 28.7 32.1 22.7 70 4.1 NE 9 11 5 6 1013.3 1012.8 0.0
19/09:30am 27.5 31.0 21.1 68 4.3 NNW 4 6 2 3 1013.5 1013.0 0.0
19/09:00am 27.1 30.7 22.3 75 3.2 NNW 7 11 4 6 1013.6 1013.1 0.0
19/08:30am 26.0 30.3 22.7 82 2.2 NNW 4 9 2 5 1013.2 1012.7 0.0
19/08:00am 24.6 28.2 22.1 86 1.7 NNW 6 9 3 5 1013.1 1012.6 0.0
19/07:30am 23.4 26.9 21.8 91 1.1 NW 6 11 3 6 1012.5 1012.0 0.0
19/07:00am 22.6 25.7 21.4 93 0.8 WNW 7 11 4 6 1012.2 1011.7 0.0
19/06:30am 22.1 24.6 21.1 94 0.7 WNW 9 15 5 8 1012.0 1011.5 0.0
19/06:00am 22.1 24.6 21.1 94 0.7 NW 9 11 5 6 1011.4 1010.9 0.0
19/05:30am 22.4 25.4 21.2 93 0.8 NNW 7 11 4 6 1011.1 1010.6 0.0
19/05:00am 22.6 25.8 21.2 92 0.9 NNW 6 7 3 4 1010.7 1010.2 0.0
19/04:30am 22.8 25.2 21.6 93 0.8 NNW 11 17 6 9 1010.3 1009.8 0.0
19/04:00am 22.9 25.7 21.5 92 0.9 NNW 9 13 5 7 1010.5 1010.0 0.0
19/03:30am 23.2 25.2 21.6 91 1.1 NNW 13 15 7 8 1010.5 1010.0 0.0
19/03:00am 23.3 25.7 21.6 90 1.1 NNW 11 15 6 8 1010.9 1010.4 0.0
19/02:30am 23.7 26.5 21.6 88 1.4 NNW 9 13 5 7 1011.2 1010.7 0.0
19/02:00am 24.3 25.6 20.8 81 2.3 NNE 15 20 8 11 1011.4 1010.9 0.0
19/01:30am 24.4 24.9 20.9 81 2.3 NNE 19 24 10 13 1011.5 1011.0 0.0
19/01:00am 23.9 25.7 21.8 88 1.4 N 15 22 8 12 1011.8 1011.3 0.0
19/12:30am 23.7 25.4 21.6 88 1.4 N 15 20 8 11 1012.1 1011.6 0.0
19/12:00am 23.8 25.5 21.7 88 1.4 N 15 20 8 11 1012.4 1011.9 0.0
 
Date/Time
EDT
Temp
°C
App
Temp
°C
Dew
Point
°C
Rel
Hum
%
Delta-T
°C
Wind Press
QNH
hPa
Press
MSL
hPa
Rain since
9am
mm
Dir  Spd
km/h
Gust
km/h
Spd
kts
Gust
kts
18/11:30pm 24.1 26.3 21.8 87 1.5 N 13 19 7 10 1012.8 1012.3 0.0
18/11:00pm 24.6 25.1 20.9 80 2.4 NNE 19 28 10 15 1012.9 1012.4 0.0
18/10:30pm 24.6 25.1 20.9 80 2.4 NNE 19 24 10 13 1013.0 1012.5 0.0
18/10:00pm 24.7 25.0 20.8 79 2.6 NNE 20 28 11 15 1012.6 1012.1 0.0
18/09:30pm 24.7 25.5 20.6 78 2.7 NNE 17 22 9 12 1012.3 1011.8 0.0
18/09:00pm 24.7 25.1 20.6 78 2.7 NNE 19 28 10 15 1012.1 1011.6 0.0
18/08:30pm 24.8 25.5 20.5 77 2.8 NE 17 24 9 13 1011.9 1011.4 0.0
18/08:00pm 24.8 25.6 20.7 78 2.7 NE 17 24 9 13 1011.6 1011.1 0.0
18/07:30pm 25.1 25.6 20.8 77 2.8 NNE 19 24 10 13 1011.2 1010.7 0.0
18/07:00pm 25.2 25.2 20.2 74 3.3 NE 20 30 11 16 1010.8 1010.3 0.0
18/06:30pm 25.4 24.6 20.9 76 3.0 NE 26 32 14 17 1010.4 1009.9 0.0
18/06:00pm 25.4 25.8 20.9 76 3.0 NE 20 28 11 15 1010.6 1010.1 0.0
18/05:30pm 26.1 25.3 20.9 73 3.4 NE 26 33 14 18 1010.3 1009.8 0.0
18/05:00pm 26.5 27.3 21.3 73 3.5 NNE 19 30 10 16 1010.7 1010.2 0.0
18/04:30pm 26.5 27.0 20.8 71 3.8 NNE 19 28 10 15 1010.6 1010.1 0.0
18/04:00pm 26.8 25.5 20.6 69 4.1 NE 28 33 15 18 1010.9 1010.4 0.0
18/03:30pm 27.4 26.5 20.7 67 4.4 NE 26 33 14 18 1011.3 1010.8 0.0
18/03:00pm 27.5 26.4 21.1 68 4.3 NE 28 37 15 20 1011.4 1010.9 0.0
18/02:30pm 28.2 28.2 21.7 68 4.4 NE 24 32 13 17 1011.9 1011.4 0.0
18/02:00pm 28.0 26.4 21.5 67 4.4 NE 32 37 17 20 1011.8 1011.3 0.0
18/01:30pm 27.9 27.8 21.4 67 4.3 NE 24 33 13 18 1012.3 1011.8 0.0
18/01:00pm 28.2 27.1 21.0 65 4.8 NE 28 33 15 18 1012.6 1012.1 0.0
18/12:30pm 27.7 26.8 21.5 69 4.2 NE 28 33 15 18 1013.0 1012.5 0.0
18/12:00pm 28.6 27.8 21.6 66 4.7 NE 28 32 15 17 1013.4 1012.9 0.0
18/11:30am 27.6 27.7 21.9 71 3.8 NE 24 30 13 16 1014.0 1013.5 0.0
18/11:00am 26.6 26.2 20.9 71 3.8 NE 24 30 13 16 1013.6 1013.1 0.0
18/10:30am 26.3 25.6 21.1 73 3.4 NE 26 33 14 18 1013.5 1013.0 0.0
18/10:00am 25.9 25.6 21.1 75 3.2 NE 24 30 13 16 1013.4 1012.9 0.0
18/09:30am 26.2 26.0 21.2 74 3.3 NE 24 30 13 16 1013.3 1012.8 0.0
18/09:00am 26.0 25.9 22.3 80 2.5 NE 26 32 14 17 1013.1 1012.6 1.4
18/08:30am 24.1 26.1 21.6 86 1.7 N 13 20 7 11 1013.0 1012.5 1.4
18/08:00am 24.5 24.2 21.8 85 1.8 NE 26 32 14 17 1012.8 1012.3 1.4
18/07:30am 24.1 24.3 21.4 85 1.8 NE 22 28 12 15 1012.7 1012.2 1.4
18/07:00am 23.6 23.9 21.5 88 1.4 NE 22 28 12 15 1012.5 1012.0 1.4
18/06:30am 23.6 24.3 21.5 88 1.4 NE 20 26 11 14 1012.2 1011.7 1.4
18/06:00am 23.6 25.0 21.9 90 1.1 NE 17 22 9 12 1012.0 1011.5 1.4
18/05:30am 23.4 25.3 22.0 92 0.9 NE 15 20 8 11 1011.9 1011.4 1.4
18/05:00am 23.5 25.1 22.1 92 0.9 NNE 17 22 9 12 1011.7 1011.2 1.4
18/04:30am 23.1 24.4 21.7 92 0.9 NNE 17 22 9 12 1011.6 1011.1 1.4
18/04:00am 23.4 25.0 22.2 93 0.8 NE 17 22 9 12 1011.5 1011.0 1.4
18/03:30am 23.4 25.8 22.2 93 0.8 NE 13 17 7 9 1011.6 1011.1 1.4
18/03:00am 23.6 26.5 22.4 93 0.8 NNW 11 15 6 8 1011.8 1011.3 0.8
18/02:30am 24.1 28.8 22.7 92 0.9 NNW 2 9 1 5 1011.9 1011.4 0.2
18/02:00am 24.2 27.9 22.5 90 1.1 NNW 7 13 4 7 1012.1 1011.6 0.0

Other formats

Comma delimited format used in spreadsheet applications
http://www.bom.gov.au/fwo/IDN60801/IDN60801.94599.axf

JavaScript Object Notation format (JSON) in row-major order
http://www.bom.gov.au/fwo/IDN60801/IDN60801.94599.json

Data quality

Most of these data are generated automatically and are frequently updated. Quality checks on data are not normally performed. It is possible for incorrect values to appear. Refer to information at About Latest Weather Observations and please check the disclaimer before using these data.